createdAt,value
2019-04-23T00:00:17.141Z,16.57
2019-04-23T00:05:30.206Z,17.07
2019-04-23T00:10:31.225Z,16.80
2019-04-23T00:16:03.007Z,15.38
2019-04-23T00:26:41.854Z,17.15
2019-04-23T00:31:49.903Z,18.80
2019-04-23T00:37:01.769Z,18.17
2019-04-23T00:42:17.693Z,18.70
2019-04-23T00:47:25.351Z,17.10
2019-04-23T00:52:33.524Z,15.47
2019-04-23T00:57:47.050Z,15.33
2019-04-23T01:02:58.982Z,14.03
2019-04-23T01:07:58.115Z,14.40
2019-04-23T01:13:08.665Z,15.43
2019-04-23T01:18:28.166Z,14.03
2019-04-23T01:23:14.239Z,13.83
2019-04-23T01:28:49.770Z,13.80
2019-04-23T01:33:56.639Z,13.77
2019-04-23T01:39:06.503Z,13.23
2019-04-23T01:44:14.226Z,14.57
2019-04-23T01:49:30.618Z,14.40
2019-04-23T01:54:31.069Z,16.33
2019-04-23T01:59:38.563Z,17.13
2019-04-23T02:04:58.024Z,18.17
2019-04-23T02:10:08.364Z,16.77
2019-04-23T02:15:15.143Z,19.13
2019-04-23T02:20:26.189Z,17.87
2019-04-23T02:25:39.657Z,19.73
2019-04-23T02:31:18.554Z,17.93
2019-04-23T02:51:21.652Z,20.53
2019-04-23T02:56:37.491Z,16.67
2019-04-23T03:01:31.246Z,14.30
2019-04-23T03:06:48.091Z,15.20
2019-04-23T03:22:15.694Z,15.23
2019-04-23T03:27:37.245Z,16.37
2019-04-23T03:32:50.794Z,13.83
2019-04-23T03:38:05.873Z,12.97
2019-04-23T03:43:06.593Z,15.17
2019-04-23T03:48:16.817Z,12.17
2019-04-23T03:53:25.838Z,14.30
2019-04-23T03:58:34.353Z,12.33
2019-04-23T04:04:03.812Z,11.10
2019-04-23T04:08:50.813Z,13.57
2019-04-23T04:14:04.777Z,13.17
2019-04-23T04:19:06.412Z,14.33
2019-04-23T04:24:27.523Z,16.03
2019-04-23T04:29:21.097Z,15.93
2019-04-23T04:39:42.857Z,14.83
2019-04-23T04:45:00.335Z,15.83
2019-04-23T04:49:55.670Z,15.70
2019-04-23T04:55:09.976Z,14.00
2019-04-23T05:10:39.283Z,11.00
2019-04-23T05:15:37.357Z,12.63
2019-04-23T05:20:53.476Z,15.10
2019-04-23T05:25:50.040Z,13.43
2019-04-23T05:31:12.239Z,12.07
2019-04-23T05:36:20.186Z,14.77
2019-04-23T05:41:23.471Z,10.57
2019-04-23T05:46:33.770Z,9.17
2019-04-23T05:51:44.531Z,9.58
2019-04-23T05:56:46.754Z,10.90
2019-04-23T06:07:15.164Z,15.63
2019-04-23T06:12:25.192Z,12.57
2019-04-23T06:17:21.262Z,13.70
2019-04-23T06:22:38.969Z,14.07
2019-04-23T06:27:43.135Z,14.00
2019-04-23T06:32:54.609Z,14.30
2019-04-23T06:38:32.982Z,12.33
2019-04-23T06:43:43.684Z,14.77
2019-04-23T06:48:47.714Z,15.70
2019-04-23T06:53:59.968Z,22.13
2019-04-23T06:59:05.918Z,71.03
2019-04-23T07:04:22.054Z,18.70
2019-04-23T07:09:15.241Z,11.00
2019-04-23T07:14:38.624Z,14.20
2019-04-23T07:19:44.992Z,22.37
2019-04-23T07:24:49.502Z,20.27
2019-04-23T07:30:03.564Z,23.20
2019-04-23T07:46:08.128Z,25.85
2019-04-23T07:50:59.001Z,31.53
2019-04-23T07:56:13.244Z,27.23
2019-04-23T08:01:17.924Z,20.50
2019-04-23T08:06:31.391Z,26.40
2019-04-23T08:11:39.873Z,18.90
2019-04-23T08:16:46.580Z,19.97
2019-04-23T08:22:07.106Z,27.57
2019-04-23T08:27:21.496Z,27.30
2019-04-23T08:53:34.240Z,21.10
2019-04-23T09:03:34.858Z,35.80
2019-04-23T09:08:43.740Z,45.50
2019-04-23T09:13:57.428Z,42.67
2019-04-23T09:19:11.118Z,39.43
2019-04-23T09:24:11.801Z,22.07
2019-04-23T09:29:28.311Z,23.20
2019-04-23T09:34:52.367Z,35.77
2019-04-23T09:40:27.645Z,23.60
2019-04-23T09:55:53.102Z,40.20
2019-04-23T10:01:27.287Z,54.33
2019-04-23T10:06:18.536Z,56.77
2019-04-23T10:11:19.924Z,48.50
2019-04-23T10:16:30.949Z,43.73
2019-04-23T10:21:37.457Z,50.33
2019-04-23T10:26:45.768Z,44.47
2019-04-23T10:31:53.581Z,43.40
2019-04-23T10:37:02.033Z,42.17
2019-04-23T10:42:10.090Z,26.93
2019-04-23T10:48:13.840Z,37.90
2019-04-23T10:58:24.687Z,32.23
2019-04-23T11:08:38.636Z,48.05
2019-04-23T11:13:53.194Z,45.23
2019-04-23T11:19:09.304Z,40.13
2019-04-23T11:24:21.006Z,70.27
2019-04-23T11:29:29.078Z,38.77
2019-04-23T11:34:53.423Z,50.17
2019-04-23T11:39:45.248Z,53.73
2019-04-23T11:44:52.177Z,35.60
2019-04-23T11:55:15.079Z,37.37
2019-04-23T12:00:14.565Z,46.07
2019-04-23T12:16:23.866Z,53.00
2019-04-23T12:21:28.432Z,43.73
2019-04-23T12:26:35.535Z,50.30
2019-04-23T12:32:15.592Z,65.60
2019-04-23T12:37:17.149Z,50.63
2019-04-23T12:42:43.634Z,60.93
2019-04-23T12:47:43.701Z,66.60
2019-04-23T12:52:40.738Z,68.67
2019-04-23T12:57:46.909Z,74.90
2019-04-23T13:08:08.333Z,71.60
2019-04-23T13:18:23.419Z,81.47
2019-04-23T13:28:40.524Z,74.30
2019-04-23T13:33:43.843Z,72.83
2019-04-23T13:38:57.015Z,59.93
2019-04-23T13:44:00.092Z,50.13
2019-04-23T13:49:18.120Z,53.33
2019-04-23T13:54:47.594Z,52.20
2019-04-23T14:05:00.137Z,61.97
2019-04-23T14:10:20.086Z,40.23
2019-04-23T14:15:34.413Z,41.27
2019-04-23T14:20:28.080Z,53.73
2019-04-23T14:25:40.111Z,47.53
2019-04-23T14:30:54.425Z,60.50
2019-04-23T14:35:56.335Z,53.73
2019-04-23T14:41:14.940Z,64.57
2019-04-23T14:46:34.378Z,50.10
2019-04-23T14:51:44.184Z,41.63
2019-04-23T14:56:38.955Z,50.20
2019-04-23T15:12:09.657Z,46.60
2019-04-23T15:17:15.876Z,66.73
2019-04-23T15:22:20.473Z,40.27
2019-04-23T15:28:03.504Z,54.83
2019-04-23T15:32:53.603Z,41.40
2019-04-23T15:43:02.489Z,49.13
2019-04-23T15:48:11.847Z,37.27
2019-04-23T15:53:05.927Z,43.23
2019-04-23T15:58:33.229Z,35.10
2019-04-23T16:03:04.655Z,43.53
2019-04-23T16:08:45.817Z,35.05
2019-04-23T16:14:07.633Z,47.83
2019-04-23T16:19:13.679Z,48.90
2019-04-23T16:29:54.053Z,37.37
2019-04-23T16:34:39.710Z,49.63
2019-04-23T16:40:03.390Z,39.30
2019-04-23T16:55:26.972Z,38.60
2019-04-23T17:00:33.463Z,46.40
2019-04-23T17:16:08.115Z,154.17
2019-04-23T17:21:13.352Z,302.50
2019-04-23T17:26:19.342Z,205.13
2019-04-23T17:36:38.525Z,76.93
2019-04-23T17:47:27.281Z,38.83
2019-04-23T17:52:35.006Z,108.00
2019-04-23T17:57:43.589Z,30.07
2019-04-23T18:08:03.279Z,86.27
2019-04-23T18:13:13.370Z,40.33
2019-04-23T18:18:19.658Z,33.57
2019-04-23T18:23:22.268Z,39.20
2019-04-23T18:28:37.275Z,37.00
2019-04-23T18:44:13.238Z,29.37
2019-04-23T18:49:28.268Z,40.17
2019-04-23T18:54:29.614Z,34.73
2019-04-23T19:05:08.646Z,129.23
2019-04-23T19:10:39.858Z,43.83
2019-04-23T19:15:42.585Z,36.00
2019-04-23T19:21:13.857Z,25.83
2019-04-23T19:26:09.588Z,27.30
2019-04-23T19:31:33.876Z,21.70
2019-04-23T19:36:52.571Z,22.00
2019-04-23T19:42:01.484Z,31.80
2019-04-23T19:47:01.707Z,27.73
2019-04-23T19:57:15.192Z,20.93
2019-04-23T20:02:37.191Z,21.03
2019-04-23T20:07:43.722Z,25.63
2019-04-23T20:12:40.036Z,30.87
2019-04-23T20:17:51.383Z,23.03
2019-04-23T20:28:31.129Z,21.50
2019-04-23T20:33:58.291Z,22.87
2019-04-23T20:38:48.592Z,23.87
2019-04-23T20:43:49.007Z,17.67
2019-04-23T20:48:53.051Z,24.80
2019-04-23T20:54:02.058Z,17.83
2019-04-23T20:59:11.849Z,22.47
2019-04-23T21:04:24.943Z,23.50
2019-04-23T21:19:59.796Z,15.87
2019-04-23T21:24:54.330Z,21.07
2019-04-23T21:30:06.173Z,17.43
2019-04-23T21:35:16.179Z,16.50
2019-04-23T21:41:06.186Z,18.70
2019-04-23T21:46:13.307Z,15.53
2019-04-23T21:51:26.512Z,23.73
2019-04-23T21:56:21.530Z,16.30
2019-04-23T22:06:43.296Z,18.10
2019-04-23T22:17:03.294Z,21.07
2019-04-23T22:22:02.590Z,17.17
2019-04-23T22:27:11.704Z,17.20
2019-04-23T22:32:31.136Z,17.07
2019-04-23T22:37:32.372Z,15.80
2019-04-23T22:43:01.176Z,17.50
2019-04-23T22:53:00.422Z,23.93
2019-04-23T22:58:11.453Z,19.30
2019-04-23T23:03:29.439Z,18.93
2019-04-23T23:13:53.441Z,16.50
2019-04-23T23:19:01.938Z,17.93
2019-04-23T23:23:59.420Z,17.30
2019-04-23T23:29:05.786Z,16.53
2019-04-23T23:34:15.609Z,19.93
2019-04-23T23:39:29.240Z,17.97
2019-04-23T23:44:47.918Z,21.47
2019-04-23T23:49:55.004Z,16.82
2019-04-23T23:55:01.036Z,18.50
